createdAt,value
2018-03-14T00:00:24.741Z,0.00
2018-03-14T00:01:24.772Z,0.00
2018-03-14T00:02:24.792Z,0.00
2018-03-14T00:03:24.816Z,0.00
2018-03-14T00:04:24.843Z,0.00
2018-03-14T00:05:24.864Z,0.00
2018-03-14T00:06:24.884Z,0.00
2018-03-14T00:07:24.910Z,0.00
2018-03-14T00:08:24.959Z,0.00
2018-03-14T00:09:24.976Z,0.00
2018-03-14T00:10:24.985Z,0.00
2018-03-14T00:11:25.009Z,0.00
2018-03-14T00:12:25.029Z,0.00
2018-03-14T00:13:25.061Z,0.00
2018-03-14T00:14:25.077Z,0.00
2018-03-14T00:15:25.100Z,0.00
2018-03-14T00:16:25.127Z,0.00
2018-03-14T00:17:25.159Z,0.00
2018-03-14T00:18:25.173Z,0.00
2018-03-14T00:19:25.201Z,0.00
2018-03-14T00:20:25.222Z,0.00
2018-03-14T00:21:25.248Z,0.00
2018-03-14T00:22:25.265Z,0.00
2018-03-14T00:23:25.300Z,0.00
2018-03-14T00:24:25.319Z,0.00
2018-03-14T00:25:25.337Z,0.00
2018-03-14T00:26:25.359Z,0.00
2018-03-14T00:27:25.386Z,0.00
2018-03-14T00:28:25.403Z,0.00
2018-03-14T00:29:25.426Z,0.00
2018-03-14T00:30:25.465Z,0.00
2018-03-14T00:31:25.475Z,0.00
2018-03-14T00:32:25.500Z,0.00
2018-03-14T00:33:25.536Z,0.00
2018-03-14T00:34:25.552Z,0.00
2018-03-14T00:35:25.567Z,0.00
2018-03-14T00:36:25.602Z,0.00
2018-03-14T00:37:25.618Z,0.00
2018-03-14T00:38:25.695Z,0.00
2018-03-14T00:39:25.663Z,0.00
2018-03-14T00:40:25.702Z,0.00
2018-03-14T00:41:25.712Z,0.00
2018-03-14T00:42:25.733Z,0.00
2018-03-14T00:43:25.755Z,0.00
2018-03-14T00:44:25.788Z,0.00
2018-03-14T00:45:25.813Z,0.00
2018-03-14T00:46:25.829Z,0.00
2018-03-14T00:47:25.849Z,0.00
2018-03-14T00:48:25.888Z,0.00
2018-03-14T00:49:26.540Z,0.00
2018-03-14T00:50:25.917Z,0.00
2018-03-14T00:51:25.947Z,0.00
2018-03-14T00:52:25.970Z,0.00
2018-03-14T00:53:25.992Z,0.00
2018-03-14T00:54:26.019Z,0.00
2018-03-14T00:55:26.042Z,0.00
2018-03-14T00:56:26.063Z,0.00
2018-03-14T00:57:26.085Z,0.00
2018-03-14T00:58:26.103Z,0.00
2018-03-14T00:59:26.130Z,0.00
2018-03-14T01:00:26.157Z,0.00
2018-03-14T01:01:26.186Z,0.00
2018-03-14T01:02:26.203Z,0.00
2018-03-14T01:03:26.231Z,0.00
2018-03-14T01:04:26.244Z,0.00
2018-03-14T01:05:26.267Z,0.00
2018-03-14T01:06:26.292Z,0.00
2018-03-14T01:07:26.335Z,0.00
2018-03-14T01:08:26.341Z,0.00
2018-03-14T01:09:26.363Z,0.00
2018-03-14T01:10:26.379Z,0.00
2018-03-14T01:11:26.421Z,0.00
2018-03-14T01:12:26.432Z,0.00
2018-03-14T01:13:26.461Z,0.00
2018-03-14T01:14:26.482Z,0.00
2018-03-14T01:15:26.500Z,0.00
2018-03-14T01:16:26.532Z,0.00
2018-03-14T01:17:26.556Z,0.00
2018-03-14T01:18:26.571Z,0.00
2018-03-14T01:19:26.594Z,0.00
2018-03-14T01:20:26.613Z,0.00
2018-03-14T01:21:26.677Z,0.00
2018-03-14T01:22:26.661Z,0.00
2018-03-14T01:23:26.687Z,0.00
2018-03-14T01:24:26.724Z,0.00
2018-03-14T01:25:26.738Z,0.00
2018-03-14T01:26:26.758Z,0.00
2018-03-14T01:27:26.780Z,0.00
2018-03-14T01:28:26.802Z,0.00
2018-03-14T01:29:26.828Z,0.00
2018-03-14T01:30:26.854Z,0.00
2018-03-14T01:31:26.872Z,0.00
2018-03-14T01:32:26.898Z,0.00
2018-03-14T01:33:26.925Z,0.00
2018-03-14T01:34:26.971Z,0.00
2018-03-14T01:35:26.966Z,0.00
2018-03-14T01:36:26.985Z,0.00
2018-03-14T01:37:27.022Z,0.00
2018-03-14T01:38:27.043Z,0.00
2018-03-14T01:39:27.074Z,0.00
2018-03-14T01:40:27.087Z,0.00
2018-03-14T01:41:27.100Z,0.00
2018-03-14T01:42:27.124Z,0.00
2018-03-14T01:43:27.156Z,0.00
2018-03-14T01:44:27.171Z,0.00
2018-03-14T01:45:27.206Z,0.00
2018-03-14T01:46:27.217Z,0.00
2018-03-14T01:47:27.239Z,0.00
2018-03-14T01:48:27.273Z,0.00
2018-03-14T01:49:27.284Z,0.00
2018-03-14T01:50:27.306Z,0.00
2018-03-14T01:51:27.334Z,0.00
2018-03-14T01:52:27.352Z,0.00
2018-03-14T01:53:27.375Z,0.00
2018-03-14T01:54:27.404Z,0.00
2018-03-14T01:55:27.422Z,0.00
2018-03-14T01:56:27.452Z,0.00
2018-03-14T01:57:27.476Z,0.00
2018-03-14T01:58:27.500Z,0.00
2018-03-14T01:59:27.522Z,0.00
2018-03-14T02:00:27.538Z,0.00
2018-03-14T02:01:27.576Z,0.00
2018-03-14T02:02:27.586Z,0.00
2018-03-14T02:03:27.607Z,0.00
2018-03-14T02:04:27.630Z,0.00
2018-03-14T02:05:27.649Z,0.00
2018-03-14T02:06:27.678Z,0.00
2018-03-14T02:07:27.702Z,0.00
2018-03-14T02:08:27.728Z,0.00
2018-03-14T02:09:27.749Z,0.00
2018-03-14T02:10:28.548Z,0.00
2018-03-14T02:11:27.787Z,0.00
2018-03-14T02:12:27.820Z,0.00
2018-03-14T02:13:27.837Z,0.00
2018-03-14T02:14:27.855Z,0.00
2018-03-14T02:15:27.883Z,0.00
2018-03-14T02:16:27.906Z,0.00
2018-03-14T02:17:27.929Z,0.00
2018-03-14T02:18:27.953Z,0.00
2018-03-14T02:19:27.971Z,0.00
2018-03-14T02:20:28.006Z,0.00
2018-03-14T02:21:28.022Z,0.00
2018-03-14T02:22:28.043Z,0.00
2018-03-14T02:23:28.070Z,0.00
2018-03-14T02:24:28.087Z,0.00
2018-03-14T02:25:28.115Z,0.00
2018-03-14T02:26:28.128Z,0.00
2018-03-14T02:27:28.163Z,0.00
2018-03-14T02:28:28.176Z,0.00
2018-03-14T02:29:28.199Z,0.00
2018-03-14T02:30:28.221Z,0.00
2018-03-14T02:31:28.244Z,0.00
2018-03-14T02:32:28.271Z,0.00
2018-03-14T02:33:28.291Z,0.00
2018-03-14T02:34:28.352Z,0.00
2018-03-14T02:35:28.335Z,0.00
2018-03-14T02:36:28.402Z,0.00
2018-03-14T02:37:28.380Z,0.00
2018-03-14T02:38:28.414Z,0.00
2018-03-14T02:39:28.425Z,0.00
2018-03-14T02:40:28.450Z,0.00
2018-03-14T02:41:28.468Z,0.00
2018-03-14T02:42:28.503Z,0.00
2018-03-14T02:43:28.520Z,0.00
2018-03-14T02:44:28.536Z,0.00
2018-03-14T02:45:28.568Z,0.00
2018-03-14T02:46:28.585Z,0.00
2018-03-14T02:47:28.612Z,0.00
2018-03-14T02:48:28.627Z,0.00
2018-03-14T02:49:28.652Z,0.00
2018-03-14T02:50:28.675Z,0.00
2018-03-14T02:51:28.695Z,0.00
2018-03-14T02:52:28.719Z,0.00
2018-03-14T02:53:28.740Z,0.00
2018-03-14T02:54:28.766Z,0.00
2018-03-14T02:55:28.789Z,0.00
2018-03-14T02:56:28.813Z,0.00
2018-03-14T02:57:28.832Z,0.00
2018-03-14T02:58:28.861Z,0.00
2018-03-14T02:59:28.878Z,0.00
2018-03-14T03:00:28.900Z,0.00
2018-03-14T03:01:28.920Z,0.00
2018-03-14T03:02:28.955Z,0.00
2018-03-14T03:03:28.968Z,0.00
2018-03-14T03:04:28.989Z,0.00
2018-03-14T03:05:29.017Z,0.00
2018-03-14T03:06:29.038Z,0.00
2018-03-14T03:07:29.066Z,0.00
2018-03-14T03:08:29.079Z,0.00
2018-03-14T03:09:29.105Z,0.00
2018-03-14T03:10:29.122Z,0.00
2018-03-14T03:11:29.159Z,0.00
2018-03-14T03:12:29.185Z,0.00
2018-03-14T03:13:29.190Z,0.00
2018-03-14T03:14:29.214Z,0.00
2018-03-14T03:15:29.246Z,0.00
2018-03-14T03:16:29.270Z,0.00
2018-03-14T03:17:29.283Z,0.00
2018-03-14T03:18:29.310Z,0.00
2018-03-14T03:19:29.331Z,0.00
2018-03-14T03:20:29.347Z,0.00
2018-03-14T03:21:29.373Z,0.00
2018-03-14T03:22:29.398Z,0.00
2018-03-14T03:23:29.421Z,0.00
2018-03-14T03:24:29.442Z,0.00
2018-03-14T03:25:29.466Z,0.00
2018-03-14T03:26:29.492Z,0.00
2018-03-14T03:27:29.512Z,0.00
2018-03-14T03:28:29.536Z,0.00
2018-03-14T03:29:29.556Z,0.00
2018-03-14T03:30:29.576Z,0.00
2018-03-14T03:31:29.598Z,0.00
2018-03-14T03:32:29.622Z,0.00
2018-03-14T03:33:29.789Z,0.00
2018-03-14T03:34:29.679Z,0.00
2018-03-14T03:35:29.765Z,0.00
2018-03-14T03:36:29.711Z,0.00
2018-03-14T03:37:29.740Z,0.00
2018-03-14T03:38:29.763Z,0.00
2018-03-14T03:39:29.782Z,0.00
2018-03-14T03:40:29.803Z,0.00
2018-03-14T03:41:29.841Z,0.00
2018-03-14T03:42:29.849Z,0.00
2018-03-14T03:43:29.866Z,0.00
2018-03-14T03:44:30.554Z,0.00
2018-03-14T03:45:29.914Z,0.00
2018-03-14T03:46:30.110Z,0.00
2018-03-14T03:47:29.961Z,0.00
2018-03-14T03:48:29.985Z,0.00
2018-03-14T03:49:30.003Z,0.00
2018-03-14T03:50:30.028Z,0.00
2018-03-14T03:51:30.056Z,0.00
2018-03-14T03:52:30.069Z,0.00
2018-03-14T03:53:30.091Z,0.00
2018-03-14T03:54:30.112Z,0.00
2018-03-14T03:55:30.159Z,0.00
2018-03-14T03:56:30.158Z,0.00
2018-03-14T03:57:30.195Z,0.00
2018-03-14T03:58:30.213Z,0.00
2018-03-14T03:59:30.227Z,0.00
2018-03-14T04:00:30.257Z,0.00
2018-03-14T04:01:30.275Z,0.00
2018-03-14T04:02:30.302Z,0.00
2018-03-14T04:03:30.328Z,0.00
2018-03-14T04:04:30.341Z,0.00
2018-03-14T04:05:30.371Z,0.00
2018-03-14T04:06:30.392Z,0.00
2018-03-14T04:07:30.413Z,0.00
2018-03-14T04:08:30.453Z,0.00
2018-03-14T04:09:30.455Z,0.00
2018-03-14T04:10:30.515Z,0.00
2018-03-14T04:11:30.497Z,0.00
2018-03-14T04:12:30.519Z,0.00
2018-03-14T04:13:30.549Z,0.00
2018-03-14T04:14:30.567Z,0.00
2018-03-14T04:15:30.588Z,0.00
2018-03-14T04:16:30.608Z,0.00
2018-03-14T04:17:30.634Z,0.00
2018-03-14T04:18:30.679Z,0.00
2018-03-14T04:19:30.679Z,0.00
2018-03-14T04:20:30.702Z,0.00
2018-03-14T04:21:30.728Z,0.00
2018-03-14T04:22:30.758Z,0.00
2018-03-14T04:23:30.766Z,0.00
2018-03-14T04:24:30.794Z,0.00
2018-03-14T04:25:30.825Z,0.00
2018-03-14T04:26:30.842Z,0.00
2018-03-14T04:27:30.879Z,0.00
2018-03-14T04:28:30.877Z,0.00
2018-03-14T04:29:30.903Z,0.00
2018-03-14T04:30:30.923Z,0.00
2018-03-14T04:31:30.993Z,0.00
2018-03-14T04:32:30.978Z,0.00
2018-03-14T04:33:30.997Z,0.00
2018-03-14T04:34:31.018Z,0.00
2018-03-14T04:35:31.034Z,0.00
2018-03-14T04:36:31.056Z,0.00
2018-03-14T04:37:31.094Z,0.00
2018-03-14T04:38:31.099Z,0.00
2018-03-14T04:39:31.132Z,0.00
2018-03-14T04:40:31.151Z,0.00
2018-03-14T04:41:31.167Z,0.00
2018-03-14T04:42:31.199Z,0.00
2018-03-14T04:43:31.221Z,0.00
2018-03-14T04:44:31.237Z,0.00
2018-03-14T04:45:31.266Z,0.00
2018-03-14T04:46:31.284Z,0.00
2018-03-14T04:47:31.308Z,0.00
2018-03-14T04:48:31.326Z,0.00
2018-03-14T04:49:31.352Z,0.00
2018-03-14T04:50:31.374Z,0.00
2018-03-14T04:51:31.401Z,0.00
2018-03-14T04:52:31.424Z,0.00
2018-03-14T04:53:31.442Z,0.00
2018-03-14T04:54:31.481Z,0.00
2018-03-14T04:55:31.482Z,0.00
2018-03-14T04:56:31.517Z,0.00
2018-03-14T04:57:31.531Z,0.00
2018-03-14T04:58:31.549Z,0.00
2018-03-14T04:59:31.575Z,0.00
2018-03-14T05:00:31.600Z,0.00
2018-03-14T05:01:31.623Z,0.00
2018-03-14T05:02:31.642Z,0.00
2018-03-14T05:03:31.665Z,0.00
2018-03-14T05:04:31.684Z,0.00
2018-03-14T05:05:31.716Z,4.00
2018-03-14T05:06:31.730Z,4.00
2018-03-14T05:07:31.776Z,0.00
2018-03-14T05:08:31.773Z,4.00
2018-03-14T05:09:32.562Z,4.00
2018-03-14T05:10:31.826Z,4.00
2018-03-14T05:11:31.852Z,4.00
2018-03-14T05:12:31.885Z,4.00
2018-03-14T05:13:31.890Z,4.00
2018-03-14T05:14:31.903Z,4.00
2018-03-14T05:15:31.941Z,8.00
2018-03-14T05:16:31.952Z,4.00
2018-03-14T05:17:31.985Z,8.00
2018-03-14T05:18:31.999Z,8.00
2018-03-14T05:19:32.023Z,12.00
2018-03-14T05:20:32.048Z,12.00
2018-03-14T05:21:32.079Z,12.00
2018-03-14T05:22:32.091Z,16.00
2018-03-14T05:23:32.106Z,16.00
2018-03-14T05:24:32.128Z,12.00
2018-03-14T05:25:32.151Z,16.00
2018-03-14T05:26:32.185Z,16.00
2018-03-14T05:27:32.195Z,20.00
2018-03-14T05:28:32.232Z,24.00
2018-03-14T05:29:32.242Z,20.00
2018-03-14T05:30:32.267Z,28.00
2018-03-14T05:31:32.293Z,28.00
2018-03-14T05:32:32.336Z,32.00
2018-03-14T05:33:32.402Z,36.00
2018-03-14T05:34:32.399Z,28.00
2018-03-14T05:35:32.379Z,28.00
2018-03-14T05:36:32.400Z,32.00
2018-03-14T05:37:32.419Z,36.00
2018-03-14T05:38:32.441Z,44.00
2018-03-14T05:39:32.475Z,40.00
2018-03-14T05:40:32.520Z,44.00
2018-03-14T05:41:32.525Z,48.00
2018-03-14T05:42:32.538Z,56.00
2018-03-14T05:43:32.562Z,64.00
2018-03-14T05:44:32.580Z,68.00
2018-03-14T05:45:32.608Z,64.00
2018-03-14T05:46:32.628Z,64.00
2018-03-14T05:47:32.648Z,84.00
2018-03-14T05:48:32.678Z,100.00
2018-03-14T05:49:32.694Z,104.00
2018-03-14T05:50:32.709Z,108.00
2018-03-14T05:51:32.732Z,112.00
2018-03-14T05:52:32.766Z,128.00
2018-03-14T05:53:32.779Z,116.00
2018-03-14T05:54:32.796Z,120.00
2018-03-14T05:55:32.825Z,132.00
2018-03-14T05:56:32.845Z,132.00
2018-03-14T05:57:32.867Z,100.00
2018-03-14T05:58:32.887Z,100.00
2018-03-14T05:59:32.922Z,120.00
2018-03-14T06:00:32.948Z,144.00
2018-03-14T06:01:32.956Z,160.00
2018-03-14T06:02:33.017Z,160.00
2018-03-14T06:03:33.007Z,144.00
2018-03-14T06:04:33.025Z,128.00
2018-03-14T06:05:33.050Z,120.00
2018-03-14T06:06:33.077Z,132.00
2018-03-14T06:07:33.097Z,140.00
2018-03-14T06:08:33.112Z,112.00
2018-03-14T06:09:33.152Z,144.00
2018-03-14T06:10:33.193Z,132.00
2018-03-14T06:11:33.193Z,136.00
2018-03-14T06:12:33.241Z,136.00
2018-03-14T06:13:33.232Z,116.00
2018-03-14T06:14:33.256Z,116.00
2018-03-14T06:15:33.290Z,140.00
2018-03-14T06:16:33.320Z,144.00
2018-03-14T06:17:33.316Z,136.00
2018-03-14T06:18:33.340Z,116.00
2018-03-14T06:19:33.372Z,104.00
2018-03-14T06:20:33.384Z,164.00
2018-03-14T06:21:33.409Z,140.00
2018-03-14T06:22:33.442Z,132.00
2018-03-14T06:23:33.451Z,148.00
2018-03-14T06:24:33.490Z,168.00
2018-03-14T06:25:33.521Z,148.00
2018-03-14T06:26:33.527Z,140.00
2018-03-14T06:27:33.537Z,168.00
2018-03-14T06:28:33.559Z,176.00
2018-03-14T06:29:33.584Z,172.00
2018-03-14T06:30:33.651Z,168.00
2018-03-14T06:31:33.630Z,176.00
2018-03-14T06:32:33.686Z,168.00
2018-03-14T06:33:33.691Z,228.00
2018-03-14T06:34:33.729Z,272.00
2018-03-14T06:35:33.729Z,256.00
2018-03-14T06:36:33.750Z,236.00
2018-03-14T06:37:33.762Z,320.00
2018-03-14T06:38:33.788Z,352.00
2018-03-14T06:39:33.808Z,292.00
2018-03-14T06:40:33.839Z,248.00
2018-03-14T06:41:33.853Z,304.00
2018-03-14T06:42:33.878Z,268.00
2018-03-14T06:43:33.900Z,304.00
2018-03-14T06:44:33.932Z,268.00
2018-03-14T06:45:33.942Z,312.00
2018-03-14T06:46:33.969Z,304.00
2018-03-14T06:47:33.993Z,300.00
2018-03-14T06:48:34.008Z,364.00
2018-03-14T06:49:34.044Z,348.00
2018-03-14T06:50:34.059Z,344.00
2018-03-14T06:51:34.108Z,364.00
2018-03-14T06:52:34.109Z,320.00
2018-03-14T06:53:34.125Z,288.00
2018-03-14T06:54:34.259Z,344.00
2018-03-14T06:55:34.177Z,396.00
2018-03-14T06:56:34.198Z,380.00
2018-03-14T06:57:34.210Z,368.00
2018-03-14T06:58:34.244Z,368.00
2018-03-14T06:59:34.257Z,368.00
2018-03-14T07:00:34.291Z,400.00
2018-03-14T07:01:34.312Z,412.00
2018-03-14T07:02:34.341Z,368.00
2018-03-14T07:03:34.343Z,480.00
2018-03-14T07:04:34.368Z,476.00
2018-03-14T07:05:34.542Z,404.00
2018-03-14T07:06:34.409Z,400.00
2018-03-14T07:07:34.442Z,408.00
2018-03-14T07:08:34.485Z,408.00
2018-03-14T07:09:34.485Z,432.00
2018-03-14T07:10:34.502Z,336.00
2018-03-14T07:11:34.568Z,308.00
2018-03-14T07:12:34.554Z,388.00
2018-03-14T07:13:34.587Z,404.00
2018-03-14T07:14:34.592Z,368.00
2018-03-14T07:15:34.628Z,404.00
2018-03-14T07:16:34.639Z,460.00
2018-03-14T07:17:34.674Z,476.00
2018-03-14T07:18:34.691Z,572.00
2018-03-14T07:19:34.708Z,552.00
2018-03-14T07:20:34.739Z,488.00
2018-03-14T07:21:34.746Z,488.00
2018-03-14T07:22:34.776Z,536.00
2018-03-14T07:23:34.792Z,584.00
2018-03-14T07:24:34.818Z,652.00
2018-03-14T07:25:34.836Z,572.00
2018-03-14T07:26:34.862Z,560.00
2018-03-14T07:27:34.892Z,476.00
2018-03-14T07:28:34.917Z,456.00
2018-03-14T07:29:34.933Z,708.00
2018-03-14T07:30:34.948Z,548.00
2018-03-14T07:31:34.986Z,500.00
2018-03-14T07:32:35.003Z,600.00
2018-03-14T07:33:35.023Z,536.00
2018-03-14T07:34:35.055Z,508.00
2018-03-14T07:35:35.094Z,580.00
2018-03-14T07:36:35.087Z,548.00
2018-03-14T07:37:35.119Z,548.00
2018-03-14T07:38:35.129Z,428.00
2018-03-14T07:39:35.159Z,416.00
2018-03-14T07:40:35.177Z,464.00
2018-03-14T07:41:35.199Z,576.00
2018-03-14T07:42:35.228Z,636.00
2018-03-14T07:43:35.243Z,432.00
2018-03-14T07:44:35.276Z,500.00
2018-03-14T07:45:35.289Z,612.00
2018-03-14T07:46:35.312Z,588.00
2018-03-14T07:47:35.334Z,492.00
2018-03-14T07:48:35.360Z,592.00
2018-03-14T07:49:35.380Z,692.00
2018-03-14T07:50:35.408Z,568.00
2018-03-14T07:51:35.450Z,596.00
2018-03-14T07:52:35.456Z,576.00
2018-03-14T07:53:35.481Z,660.00
2018-03-14T07:54:35.496Z,652.00
2018-03-14T07:55:35.509Z,792.00
2018-03-14T07:56:35.541Z,680.00
2018-03-14T07:57:35.585Z,808.00
2018-03-14T07:58:35.582Z,1048.00
2018-03-14T07:59:35.604Z,828.00
2018-03-14T08:00:35.635Z,808.00
2018-03-14T08:01:35.653Z,888.00
2018-03-14T08:02:35.680Z,892.00
2018-03-14T08:03:35.694Z,904.00
2018-03-14T08:04:35.728Z,960.00
2018-03-14T08:05:35.740Z,900.00
2018-03-14T08:06:35.794Z,932.00
2018-03-14T08:07:35.790Z,692.00
2018-03-14T08:08:35.814Z,780.00
2018-03-14T08:09:35.838Z,936.00
2018-03-14T08:10:35.850Z,1348.00
2018-03-14T08:11:35.873Z,1468.00
2018-03-14T08:12:35.898Z,1100.00
2018-03-14T08:13:36.106Z,1152.00
2018-03-14T08:14:35.945Z,892.00
2018-03-14T08:15:35.969Z,740.00
2018-03-14T08:16:35.991Z,1008.00
2018-03-14T08:17:36.025Z,932.00
2018-03-14T08:18:36.035Z,960.00
2018-03-14T08:19:36.180Z,1036.00
2018-03-14T08:20:36.149Z,896.00
2018-03-14T08:21:36.106Z,884.00
2018-03-14T08:22:36.140Z,824.00
2018-03-14T08:23:36.147Z,852.00
2018-03-14T08:24:36.187Z,840.00
2018-03-14T08:25:36.188Z,1080.00
2018-03-14T08:26:36.214Z,1308.00
2018-03-14T08:27:36.270Z,1044.00
2018-03-14T08:28:36.364Z,1156.00
2018-03-14T08:29:36.288Z,1052.00
2018-03-14T08:30:36.328Z,968.00
2018-03-14T08:31:36.328Z,956.00
2018-03-14T08:32:36.354Z,1044.00
2018-03-14T08:33:36.373Z,1080.00
2018-03-14T08:34:36.404Z,1284.00
2018-03-14T08:35:36.428Z,928.00
2018-03-14T08:36:36.454Z,872.00
2018-03-14T08:37:36.469Z,836.00
2018-03-14T08:38:36.489Z,748.00
2018-03-14T08:39:36.508Z,684.00
2018-03-14T08:40:36.564Z,552.00
2018-03-14T08:41:36.556Z,704.00
2018-03-14T08:42:36.582Z,696.00
2018-03-14T08:43:36.610Z,580.00
2018-03-14T08:44:36.640Z,492.00
2018-03-14T08:45:36.650Z,524.00
2018-03-14T08:46:36.682Z,540.00
2018-03-14T08:47:36.696Z,492.00
2018-03-14T08:48:36.716Z,420.00
2018-03-14T08:49:36.764Z,468.00
2018-03-14T08:50:36.762Z,664.00
2018-03-14T08:51:36.788Z,576.00
2018-03-14T08:52:36.804Z,444.00
2018-03-14T08:53:36.837Z,468.00
2018-03-14T08:54:36.857Z,568.00
2018-03-14T08:55:36.875Z,896.00
2018-03-14T08:56:36.920Z,968.00
2018-03-14T08:57:36.914Z,828.00
2018-03-14T08:58:36.942Z,1120.00
2018-03-14T08:59:36.969Z,1100.00
2018-03-14T09:00:36.986Z,752.00
2018-03-14T09:01:37.011Z,1032.00
2018-03-14T09:02:37.046Z,1176.00
2018-03-14T09:03:37.061Z,1164.00
2018-03-14T09:04:37.091Z,964.00
2018-03-14T09:05:37.103Z,740.00
2018-03-14T09:06:37.126Z,980.00
2018-03-14T09:07:37.150Z,1108.00
2018-03-14T09:08:37.174Z,1028.00
2018-03-14T09:09:37.204Z,900.00
2018-03-14T09:10:37.243Z,932.00
2018-03-14T09:11:37.243Z,1016.00
2018-03-14T09:12:37.272Z,976.00
2018-03-14T09:13:37.292Z,756.00
2018-03-14T09:14:37.332Z,608.00
2018-03-14T09:15:37.340Z,956.00
2018-03-14T09:16:37.351Z,964.00
2018-03-14T09:17:37.395Z,1020.00
2018-03-14T09:18:37.399Z,1136.00
2018-03-14T09:19:37.419Z,1300.00
2018-03-14T09:20:37.446Z,1124.00
2018-03-14T09:21:37.490Z,1440.00
2018-03-14T09:22:37.491Z,1868.00
2018-03-14T09:23:37.517Z,1188.00
2018-03-14T09:24:37.540Z,880.00
2018-03-14T09:25:37.586Z,1224.00
2018-03-14T09:26:37.582Z,1084.00
2018-03-14T09:27:37.620Z,968.00
2018-03-14T09:28:37.634Z,992.00
2018-03-14T09:29:37.662Z,1060.00
2018-03-14T09:30:37.677Z,1212.00
2018-03-14T09:31:37.703Z,1084.00
2018-03-14T09:32:37.731Z,1432.00
2018-03-14T09:33:37.748Z,1756.00
2018-03-14T09:34:37.782Z,1412.00
2018-03-14T09:35:37.787Z,1324.00
2018-03-14T09:36:37.815Z,1256.00
2018-03-14T09:37:37.863Z,1396.00
2018-03-14T09:38:37.872Z,1488.00
2018-03-14T09:39:37.881Z,1392.00
2018-03-14T09:40:37.917Z,1272.00
2018-03-14T09:41:37.931Z,1184.00
2018-03-14T09:42:37.950Z,1104.00
2018-03-14T09:43:37.976Z,940.00
2018-03-14T09:44:37.997Z,1016.00
2018-03-14T09:45:38.018Z,904.00
2018-03-14T09:46:38.044Z,776.00
2018-03-14T09:47:38.066Z,948.00
2018-03-14T09:48:38.097Z,1424.00
2018-03-14T09:49:38.127Z,1536.00
2018-03-14T09:50:38.139Z,1252.00
2018-03-14T09:51:38.231Z,956.00
2018-03-14T09:52:38.193Z,996.00
2018-03-14T09:53:38.215Z,836.00
2018-03-14T09:54:38.230Z,844.00
2018-03-14T09:55:38.253Z,1048.00
2018-03-14T09:56:38.278Z,1196.00
2018-03-14T09:57:38.294Z,1624.00
2018-03-14T09:58:38.345Z,1772.00
2018-03-14T09:59:38.346Z,1552.00
2018-03-14T10:00:38.369Z,1508.00
2018-03-14T10:01:38.406Z,1252.00
2018-03-14T10:02:38.525Z,1108.00
2018-03-14T10:03:38.437Z,1580.00
2018-03-14T10:04:38.466Z,2164.00
2018-03-14T10:05:38.535Z,2404.00
2018-03-14T10:06:38.514Z,2176.00
2018-03-14T10:07:38.531Z,2352.00
2018-03-14T10:08:38.552Z,1936.00
2018-03-14T10:09:38.585Z,1424.00
2018-03-14T10:10:38.626Z,1084.00
2018-03-14T10:11:38.638Z,980.00
2018-03-14T10:12:38.654Z,840.00
2018-03-14T10:13:38.681Z,932.00
2018-03-14T10:14:38.693Z,1152.00
2018-03-14T10:15:38.717Z,1388.00
2018-03-14T10:16:38.742Z,1280.00
2018-03-14T10:17:38.779Z,1316.00
2018-03-14T10:18:38.806Z,1124.00
2018-03-14T10:19:38.811Z,944.00
2018-03-14T10:20:38.840Z,776.00
2018-03-14T10:21:38.859Z,732.00
2018-03-14T10:22:38.878Z,716.00
2018-03-14T10:23:38.923Z,684.00
2018-03-14T10:24:38.933Z,620.00
2018-03-14T10:25:39.073Z,548.00
2018-03-14T10:26:38.972Z,552.00
2018-03-14T10:27:39.018Z,524.00
2018-03-14T10:28:39.020Z,524.00
2018-03-14T10:29:39.050Z,528.00
2018-03-14T10:30:39.071Z,520.00
2018-03-14T10:31:39.099Z,448.00
2018-03-14T10:32:39.118Z,392.00
2018-03-14T10:33:39.143Z,380.00
2018-03-14T10:34:39.167Z,412.00
2018-03-14T10:35:39.182Z,436.00
2018-03-14T10:36:39.211Z,424.00
2018-03-14T10:37:39.237Z,456.00
2018-03-14T10:38:39.259Z,440.00
2018-03-14T10:39:39.292Z,420.00
2018-03-14T10:40:39.301Z,400.00
2018-03-14T10:41:39.324Z,428.00
2018-03-14T10:42:39.351Z,392.00
2018-03-14T10:43:39.369Z,368.00
2018-03-14T10:44:39.394Z,388.00
2018-03-14T10:45:39.418Z,392.00
2018-03-14T10:46:39.442Z,392.00
2018-03-14T10:47:39.467Z,392.00
2018-03-14T10:48:39.502Z,372.00
2018-03-14T10:49:39.510Z,372.00
2018-03-14T10:50:39.542Z,404.00
2018-03-14T10:51:39.552Z,456.00
2018-03-14T10:52:39.594Z,416.00
2018-03-14T10:53:39.601Z,404.00
2018-03-14T10:54:39.621Z,432.00
2018-03-14T10:55:39.656Z,444.00
2018-03-14T10:56:39.668Z,432.00
2018-03-14T10:57:39.704Z,432.00
2018-03-14T10:58:39.725Z,444.00
2018-03-14T10:59:40.595Z,472.00
2018-03-14T11:00:39.764Z,464.00
2018-03-14T11:01:39.796Z,424.00
2018-03-14T11:02:39.810Z,412.00
2018-03-14T11:03:39.850Z,436.00
2018-03-14T11:04:39.859Z,484.00
2018-03-14T11:05:39.878Z,512.00
2018-03-14T11:06:39.906Z,568.00
2018-03-14T11:07:39.939Z,568.00
2018-03-14T11:08:39.974Z,644.00
2018-03-14T11:09:39.985Z,652.00
2018-03-14T11:10:40.587Z,588.00
2018-03-14T11:11:40.028Z,552.00
2018-03-14T11:12:40.046Z,484.00
2018-03-14T11:13:40.062Z,512.00
2018-03-14T11:14:40.097Z,612.00
2018-03-14T11:15:40.121Z,640.00
2018-03-14T11:16:40.137Z,628.00
2018-03-14T11:17:40.168Z,652.00
2018-03-14T11:18:40.183Z,660.00
2018-03-14T11:19:40.211Z,648.00
2018-03-14T11:20:40.235Z,688.00
2018-03-14T11:21:40.273Z,700.00
2018-03-14T11:22:40.278Z,808.00
2018-03-14T11:23:40.307Z,836.00
2018-03-14T11:24:40.319Z,764.00
2018-03-14T11:25:40.350Z,788.00
2018-03-14T11:26:40.368Z,824.00
2018-03-14T11:27:40.393Z,776.00
2018-03-14T11:28:40.424Z,772.00
2018-03-14T11:29:40.443Z,784.00
2018-03-14T11:30:40.465Z,752.00
2018-03-14T11:31:40.496Z,728.00
2018-03-14T11:32:40.515Z,724.00
2018-03-14T11:33:40.539Z,728.00
2018-03-14T11:34:40.557Z,736.00
2018-03-14T11:35:41.098Z,744.00
2018-03-14T11:36:40.600Z,728.00
2018-03-14T11:37:40.623Z,768.00
2018-03-14T11:38:40.643Z,828.00
2018-03-14T11:39:40.672Z,924.00
2018-03-14T11:40:40.691Z,1000.00
2018-03-14T11:41:40.724Z,1056.00
2018-03-14T11:42:40.744Z,1088.00
2018-03-14T11:43:40.780Z,1112.00
2018-03-14T11:44:40.805Z,1104.00
2018-03-14T11:45:40.808Z,1096.00
2018-03-14T11:46:40.845Z,1160.00
2018-03-14T11:47:40.859Z,1184.00
2018-03-14T11:48:40.923Z,1184.00
2018-03-14T11:49:40.908Z,1172.00
2018-03-14T11:50:40.923Z,1144.00
2018-03-14T11:51:40.951Z,1124.00
2018-03-14T11:52:41.021Z,1160.00
2018-03-14T11:53:40.994Z,1232.00
2018-03-14T11:54:41.026Z,1224.00
2018-03-14T11:55:41.046Z,1092.00
2018-03-14T11:56:41.060Z,1032.00
2018-03-14T11:57:41.093Z,1008.00
2018-03-14T11:58:41.127Z,1028.00
2018-03-14T11:59:41.136Z,972.00
2018-03-14T12:00:41.162Z,944.00
2018-03-14T12:01:41.209Z,928.00
2018-03-14T12:02:41.217Z,1024.00
2018-03-14T12:03:41.226Z,1044.00
2018-03-14T12:04:41.249Z,1088.00
2018-03-14T12:05:41.268Z,1068.00
2018-03-14T12:06:41.303Z,1012.00
2018-03-14T12:07:41.322Z,972.00
2018-03-14T12:08:41.343Z,936.00
2018-03-14T12:09:41.366Z,936.00
2018-03-14T12:10:41.390Z,960.00
2018-03-14T12:11:41.417Z,948.00
2018-03-14T12:12:41.434Z,1020.00
2018-03-14T12:13:41.464Z,1056.00
2018-03-14T12:14:41.480Z,1052.00
2018-03-14T12:15:41.546Z,1036.00
2018-03-14T12:16:41.528Z,1048.00
2018-03-14T12:17:41.575Z,1012.00
2018-03-14T12:18:41.575Z,1016.00
2018-03-14T12:19:41.599Z,1004.00
2018-03-14T12:20:41.619Z,1064.00
2018-03-14T12:21:41.650Z,996.00
2018-03-14T12:22:41.675Z,864.00
2018-03-14T12:23:41.713Z,864.00
2018-03-14T12:24:41.764Z,940.00
2018-03-14T12:25:41.810Z,940.00
2018-03-14T12:26:41.768Z,920.00
2018-03-14T12:27:41.805Z,960.00
2018-03-14T12:28:41.807Z,1068.00
2018-03-14T12:29:41.831Z,1144.00
2018-03-14T12:30:41.860Z,1196.00
2018-03-14T12:31:41.882Z,1160.00
2018-03-14T12:32:41.918Z,928.00
2018-03-14T12:33:41.920Z,804.00
2018-03-14T12:34:41.957Z,756.00
2018-03-14T12:35:41.972Z,704.00
2018-03-14T12:36:42.002Z,652.00
2018-03-14T12:37:42.013Z,548.00
2018-03-14T12:38:42.037Z,472.00
2018-03-14T12:39:42.061Z,388.00
2018-03-14T12:40:42.105Z,384.00
2018-03-14T12:41:42.120Z,376.00
2018-03-14T12:42:42.129Z,404.00
2018-03-14T12:43:42.179Z,404.00
2018-03-14T12:44:42.178Z,420.00
2018-03-14T12:45:42.204Z,436.00